Time;durP1;ratioP1;P1;durP2;ratioP2;P2;SDS_P1;SDS_P2;PMS_P1;PMS_P2;Temp;Humidity;BMP_temperature;BMP_pressure;BME280_temperature;BME280_humidity;BME280_pressure;Samples;Min_cycle;Max_cycle;Signal;HPM_P1;HPM_P2
2022/08/14 00:02:25;;;;;;;3.83;2.70;;;22.10;36.00;;;24.79;28.38;97263.56;5085996;28;20048;-43
2022/08/14 00:04:54;;;;;;;4.85;3.40;;;22.00;35.90;;;24.74;28.58;97249.94;5087837;28;20570;-42
2022/08/14 00:07:22;;;;;;;3.83;2.70;;;22.00;36.10;;;24.70;28.52;97241.47;5087095;28;20059;-45
2022/08/14 00:09:52;;;;;;;6.47;3.50;;;22.00;36.20;;;24.66;28.64;97236.78;5086909;28;20047;-42
2022/08/14 00:12:28;;;;;;;3.17;2.88;;;21.90;36.30;;;24.64;28.72;97241.66;5086125;28;20052;-42
2022/08/14 00:15:17;;;;;;;4.97;3.85;;;21.90;36.30;;;24.62;28.66;97238.41;5087352;28;20056;-44
2022/08/14 00:17:46;;;;;;;4.05;3.65;;;21.90;36.80;;;24.57;28.69;97233.75;5088025;28;20628;-41
2022/08/14 00:20:25;;;;;;;3.72;3.17;;;21.90;36.40;;;24.54;28.95;97229.66;5086918;28;20062;-42
2022/08/14 00:23:05;;;;;;;3.15;2.85;;;21.90;36.80;;;24.51;28.84;97232.06;5086835;28;20048;-42
2022/08/14 00:25:52;;;;;;;4.18;3.10;;;21.80;36.50;;;24.50;28.85;97230.41;5085045;28;20346;-42
2022/08/14 00:28:34;;;;;;;4.10;3.35;;;21.80;37.10;;;24.44;28.83;97228.72;5086758;28;20062;-41
2022/08/14 00:31:05;;;;;;;3.60;3.25;;;21.70;36.80;;;24.37;29.08;97231.69;5086469;28;20070;-41
2022/08/14 00:33:36;;;;;;;4.35;3.35;;;21.60;37.00;;;24.32;29.18;97227.00;5086202;28;20063;-41
2022/08/14 00:36:22;;;;;;;3.60;3.30;;;21.60;37.10;;;24.28;29.33;97223.16;5086431;28;20242;-41
2022/08/14 00:39:16;;;;;;;4.68;3.67;;;21.50;37.30;;;24.24;29.41;97213.06;5087517;28;20056;-42
2022/08/14 00:41:46;;;;;;;3.90;3.60;;;21.40;38.10;;;24.18;29.50;97209.50;5085681;28;20048;-42
2022/08/14 00:44:15;;;;;;;3.85;2.95;;;21.40;37.80;;;24.12;29.42;97205.91;5086229;28;20056;-42
2022/08/14 00:47:00;;;;;;;3.70;3.40;;;21.40;37.70;;;24.13;29.79;97198.56;5087197;28;20060;-41
2022/08/14 00:49:31;;;;;;;3.63;3.33;;;21.40;38.00;;;24.05;29.56;97202.56;5085921;28;20266;-42
2022/08/14 00:52:15;;;;;;;3.90;3.50;;;21.30;38.10;;;24.00;30.19;97199.81;5086447;28;20051;-41
2022/08/14 00:54:52;;;;;;;4.35;3.85;;;21.20;39.30;;;23.96;29.96;97199.53;5086500;28;20062;-41
2022/08/14 00:57:32;;;;;;;7.47;3.72;;;21.20;38.60;;;23.95;30.48;97211.47;5086440;28;20054;-41
2022/08/14 01:00:13;;;;;;;4.20;3.42;;;21.20;38.80;;;23.94;30.40;97209.84;5085411;28;20059;-43
2022/08/14 01:03:02;;;;;;;4.45;3.13;;;21.20;39.00;;;23.94;30.41;97203.56;5085681;28;20050;-41
2022/08/14 01:05:30;;;;;;;4.05;3.58;;;21.20;38.70;;;23.92;30.58;97205.72;5086404;28;20055;-41
2022/08/14 01:08:25;;;;;;;3.67;3.38;;;21.20;38.80;;;23.93;30.57;97200.03;5085470;28;20054;-41
2022/08/14 01:11:16;;;;;;;4.18;3.78;;;21.20;39.20;;;23.96;30.26;97194.06;5086560;28;20062;-42
2022/08/14 01:13:51;;;;;;;3.67;3.38;;;21.20;38.70;;;23.95;30.31;97194.34;5089395;28;20056;-41
2022/08/14 01:16:29;;;;;;;5.75;3.60;;;21.20;38.70;;;23.91;30.45;97190.50;5089235;28;20347;-43
2022/08/14 01:21:46;;;;;;;4.82;3.28;;;21.20;39.00;;;23.84;30.54;97184.44;5090334;28;20060;-41
2022/08/14 01:24:21;;;;;;;5.10;3.75;;;21.10;39.20;;;23.79;31.03;97185.22;5088063;28;20429;-43
2022/08/14 01:26:58;;;;;;;3.72;3.42;;;21.10;39.50;;;23.77;31.26;97176.47;5089460;28;20340;-41
2022/08/14 01:29:36;;;;;;;3.95;3.20;;;21.10;39.70;;;23.74;31.28;97187.84;5089606;28;20048;-42
2022/08/14 01:32:24;;;;;;;5.47;4.05;;;21.10;39.80;;;23.71;30.93;97186.47;5088874;28;20273;-42
2022/08/14 01:34:54;;;;;;;4.30;3.30;;;21.00;39.60;;;23.66;31.15;97177.44;5089733;28;20054;-42
2022/08/14 01:37:47;;;;;;;4.25;3.60;;;21.00;39.80;;;23.68;31.17;97175.28;5090413;28;20060;-43
2022/08/14 01:40:25;;;;;;;3.97;3.22;;;20.90;40.20;;;23.65;31.16;97173.06;5087908;28;20064;-42
2022/08/14 01:43:14;;;;;;;3.95;3.55;;;20.90;40.00;;;23.63;31.30;97170.63;5089322;28;20052;-42
2022/08/14 01:45:50;;;;;;;4.47;4.03;;;20.80;40.00;;;23.59;31.37;97169.50;5090136;28;20054;-42
2022/08/14 01:48:33;;;;;;;4.22;3.20;;;20.90;40.10;;;23.58;31.58;97167.88;5089341;28;20048;-42
2022/08/14 01:51:05;;;;;;;4.13;3.38;;;20.80;40.20;;;23.56;31.38;97159.16;5089568;28;20058;-42
2022/08/14 01:53:52;;;;;;;3.22;2.97;;;20.90;40.40;;;23.55;31.81;97154.78;5088130;28;20048;-45
2022/08/14 01:56:36;;;;;;;4.13;3.83;;;20.80;40.50;;;23.49;31.62;97159.34;5089110;28;20052;-42
2022/08/14 01:59:18;;;;;;;;;;;20.80;40.40;;;23.74;30.71;97155.25;5089544;28;20054;-43
2022/08/14 02:01:50;;;;;;;4.15;3.55;;;20.80;42.50;;;23.54;31.16;97162.13;5089193;28;19924;-45
2022/08/14 02:04:34;;;;;;;5.28;4.78;;;20.70;40.60;;;23.46;31.45;97159.88;5090344;28;20058;-43
2022/08/14 02:07:21;;;;;;;4.80;4.13;;;20.70;41.20;;;23.41;31.65;97161.72;5087815;28;20051;-43
2022/08/14 02:10:11;;;;;;;5.10;4.05;;;20.70;40.70;;;23.33;31.94;97155.66;5087989;28;20346;-43
2022/08/14 02:12:45;;;;;;;5.38;3.50;;;20.60;40.80;;;23.28;31.68;97154.78;5088473;28;20040;-43
2022/08/14 02:15:25;;;;;;;4.75;4.22;;;20.50;41.10;;;23.21;31.86;97154.16;5089794;28;20052;-44
2022/08/14 02:17:52;;;;;;;4.70;3.75;;;20.40;41.00;;;23.17;32.28;97145.72;5089366;28;20047;-42
2022/08/14 02:20:20;;;;;;;4.70;3.97;;;20.40;41.30;;;23.13;32.42;97150.81;5088818;28;20071;-42
2022/08/14 02:22:52;;;;;;;3.60;3.30;;;20.30;41.60;;;23.06;32.24;97150.19;5087846;28;20040;-42
2022/08/14 02:25:22;;;;;;;3.70;3.40;;;20.30;42.00;;;23.02;32.50;97138.16;5086728;28;20067;-42
2022/08/14 02:27:55;;;;;;;3.70;3.40;;;20.20;42.20;;;23.02;32.94;97137.34;5088671;28;20064;-43
2022/08/14 02:30:43;;;;;;;4.65;3.30;;;20.20;42.10;;;23.02;32.32;97129.22;5089520;28;20055;-42
2022/08/14 02:33:12;;;;;;;4.80;3.15;;;20.20;42.20;;;23.00;32.60;97126.75;5086987;28;20047;-43
2022/08/14 02:35:42;;;;;;;3.63;3.33;;;20.20;41.90;;;22.95;32.57;97123.97;5088766;28;20070;-43
2022/08/14 02:38:13;;;;;;;3.80;3.10;;;20.20;42.00;;;22.94;32.40;97125.03;5088241;28;20052;-42
2022/08/14 02:40:58;;;;;;;5.32;3.42;;;20.10;42.10;;;22.89;32.51;97123.06;5088375;28;20282;-43
2022/08/14 02:43:29;;;;;;;4.10;3.45;;;20.20;42.20;;;22.84;32.48;97112.19;5087356;28;20055;-42
2022/08/14 02:46:15;;;;;;;6.00;3.70;;;20.10;42.30;;;22.81;32.60;97107.25;5087365;28;20056;-42
2022/08/14 02:48:54;;;;;;;3.67;3.28;;;20.10;42.20;;;22.81;32.69;97110.75;5089189;28;20054;-43
2022/08/14 02:51:34;;;;;;;5.18;3.72;;;20.10;42.10;;;22.82;33.05;97108.91;5087923;28;20052;-42
2022/08/14 02:54:06;;;;;;;3.92;3.42;;;20.10;42.20;;;22.84;32.88;97111.34;5089328;28;20376;-42
2022/08/14 02:56:38;;;;;;;10.63;7.30;;;20.20;41.90;;;22.84;33.10;97103.19;5089074;28;20040;-44
2022/08/14 02:59:28;;;;;;;9.07;6.32;;;20.30;41.80;;;22.85;33.04;97094.81;5087459;28;20056;-42
2022/08/14 03:02:02;;;;;;;8.13;5.18;;;20.30;42.00;;;22.84;32.70;97092.34;5088195;28;20048;-43
2022/08/14 03:04:31;;;;;;;7.60;5.00;;;20.20;42.00;;;22.79;33.16;97085.78;5088310;28;20040;-44
2022/08/14 03:07:01;;;;;;;6.72;4.60;;;20.20;42.90;;;22.75;33.27;97089.25;5086952;28;20048;-42
2022/08/14 03:09:38;;;;;;;6.40;4.85;;;20.10;42.20;;;22.73;33.35;97083.28;5088128;28;20052;-42
2022/08/14 03:12:26;;;;;;;4.82;4.25;;;20.10;42.30;;;22.73;32.85;97081.38;5086906;28;20044;-41
2022/08/14 03:15:13;;;;;;;5.10;4.13;;;20.10;42.50;;;22.69;32.94;97093.81;5087929;28;20054;-41
2022/08/14 03:17:43;;;;;;;4.88;4.38;;;20.00;42.60;;;22.61;33.43;97089.63;5084448;28;20054;-43
2022/08/14 03:20:29;;;;;;;6.65;4.25;;;19.80;43.10;;;22.53;33.25;97084.66;5088157;28;20060;-44
2022/08/14 03:22:59;;;;;;;4.38;3.97;;;19.70;43.70;;;22.47;33.35;97079.41;5087815;28;20363;-41
2022/08/14 03:25:32;;;;;;;8.27;3.97;;;19.70;43.30;;;22.41;33.33;97070.38;5086596;28;20093;-42
2022/08/14 03:28:08;;;;;;;;;;;19.60;43.50;;;22.57;33.18;97066.81;5086240;28;20055;-41
2022/08/14 03:30:57;;;;;;;3.83;3.40;;;19.50;45.00;;;22.38;33.34;97066.28;5089415;28;19916;-42
2022/08/14 03:33:27;;;;;;;4.22;3.50;;;19.40;43.90;;;22.29;33.84;97069.69;5088215;28;20054;-42
2022/08/14 03:36:14;;;;;;;4.40;3.05;;;19.50;44.00;;;22.23;33.75;97066.84;5087490;28;20062;-44
2022/08/14 03:39:06;;;;;;;4.25;3.03;;;19.50;44.30;;;22.21;33.84;97065.47;5088086;28;20056;-43
2022/08/14 03:41:42;;;;;;;3.88;3.47;;;19.40;44.40;;;22.19;34.24;97064.91;5087692;28;20308;-42
2022/08/14 03:44:11;;;;;;;3.55;3.15;;;19.40;44.50;;;22.14;34.03;97062.97;5087712;28;20056;-41
2022/08/14 03:46:58;;;;;;;4.10;3.70;;;19.30;44.90;;;22.12;34.45;97065.09;5087607;28;20052;-42
2022/08/14 03:49:29;;;;;;;5.07;3.50;;;19.30;44.90;;;22.08;34.37;97063.97;5086677;28;20048;-42
2022/08/14 03:51:58;;;;;;;4.05;3.38;;;19.20;45.10;;;22.05;34.38;97067.16;5087439;28;20055;-43
2022/08/14 03:54:28;;;;;;;3.53;3.10;;;19.20;45.20;;;22.00;34.69;97062.50;5087521;28;20062;-42
2022/08/14 03:56:59;;;;;;;4.18;3.60;;;19.20;45.50;;;21.98;34.68;97063.78;5087394;28;20052;-44
2022/08/14 03:59:33;;;;;;;5.68;4.93;;;19.10;45.60;;;21.96;34.71;97065.94;5088534;28;20052;-42
2022/08/14 04:02:02;;;;;;;4.72;3.60;;;19.10;46.20;;;21.90;35.06;97066.94;5087335;28;20364;-42
2022/08/14 04:04:31;;;;;;;3.80;3.45;;;19.00;45.90;;;21.85;35.13;97053.28;5089172;28;20411;-41
2022/08/14 04:07:00;;;;;;;3.58;3.28;;;19.00;45.90;;;21.86;34.89;97061.19;5087211;28;20048;-44
2022/08/14 04:09:28;;;;;;;3.88;3.13;;;19.00;45.80;;;21.86;34.93;97065.78;5085667;28;20060;-41
2022/08/14 04:11:58;;;;;;;4.35;3.33;;;19.00;46.00;;;21.82;35.22;97065.44;5086220;28;20369;-42
2022/08/14 04:14:28;;;;;;;3.92;3.13;;;19.00;46.00;;;21.81;35.33;97061.13;5086230;28;20056;-42
2022/08/14 04:16:56;;;;;;;5.43;3.85;;;19.00;46.10;;;21.78;35.22;97059.72;5087236;28;20356;-42
2022/08/14 04:19:24;;;;;;;3.72;3.38;;;18.90;46.20;;;21.75;35.34;97062.09;5085866;28;20058;-42
2022/08/14 04:21:59;;;;;;;3.45;3.15;;;18.90;46.20;;;21.72;35.25;97065.31;5086935;28;20366;-43
2022/08/14 04:24:32;;;;;;;7.80;3.40;;;18.90;46.40;;;21.67;35.37;97048.97;5084759;28;20354;-44
2022/08/14 04:27:10;;;;;;;3.80;3.05;;;18.90;46.50;;;21.68;35.48;97051.44;5085152;28;20055;-43
2022/08/14 04:29:42;;;;;;;4.63;3.40;;;18.90;46.60;;;21.68;35.60;97048.72;5085262;28;20414;-43
2022/08/14 04:32:14;;;;;;;7.22;4.15;;;18.90;46.80;;;21.66;35.78;97044.63;5085630;28;20039;-44
2022/08/14 04:35:03;;;;;;;6.95;4.28;;;18.80;47.00;;;21.63;35.64;97038.63;5086115;28;20253;-45
2022/08/14 04:46:11;;;;;;;4.78;3.45;;;18.80;47.10;;;21.62;35.99;97055.13;5088018;28;20349;-44
2022/08/14 04:49:02;;;;;;;4.88;3.25;;;18.80;47.40;;;21.67;35.55;97043.53;5089456;28;20058;-43
2022/08/14 04:51:34;;;;;;;4.22;3.03;;;18.90;46.90;;;21.67;35.91;97051.66;5088528;28;20048;-43
2022/08/14 04:54:13;;;;;;;3.85;3.30;;;18.90;46.80;;;21.70;35.66;97052.00;5090649;28;20342;-43
2022/08/14 04:56:44;;;;;;;3.70;3.28;;;19.00;46.50;;;21.75;36.00;97052.09;5088611;28;20048;-43
2022/08/14 04:59:12;;;;;;;3.92;3.20;;;19.00;46.60;;;21.79;36.07;97057.81;5089225;28;20044;-45
2022/08/14 05:01:43;;;;;;;5.40;3.65;;;19.10;47.00;;;21.79;36.49;97057.81;5088472;27;20067;-43
2022/08/14 05:04:21;;;;;;;4.40;3.33;;;19.10;47.50;;;21.83;36.26;97050.84;5089356;28;20203;-43
2022/08/14 05:06:53;;;;;;;4.20;3.22;;;19.10;47.50;;;21.86;36.07;97053.06;5088332;28;20133;-43
2022/08/14 05:09:25;;;;;;;3.20;2.90;;;19.20;47.50;;;21.94;36.26;97055.34;5090203;28;20055;-44
2022/08/14 05:11:57;;;;;;;3.92;3.58;;;19.30;47.20;;;21.97;36.17;97052.13;5089530;28;20050;-44
2022/08/14 05:14:45;;;;;;;4.00;3.20;;;19.40;46.70;;;22.01;35.80;97047.84;5090214;28;20507;-42
2022/08/14 05:17:25;;;;;;;3.70;3.28;;;19.40;46.40;;;22.03;36.16;97053.84;5088069;28;20066;-44
2022/08/14 05:20:11;;;;;;;4.30;3.10;;;19.40;46.70;;;22.10;35.57;97064.53;5089451;28;20044;-44
2022/08/14 05:22:59;;;;;;;4.00;3.60;;;19.50;46.40;;;22.14;35.62;97062.13;5087667;28;20052;-45
2022/08/14 05:25:28;;;;;;;4.68;3.50;;;19.50;47.00;;;22.15;35.44;97055.63;5089401;28;20048;-43
2022/08/14 05:28:18;;;;;;;4.95;3.30;;;19.60;46.20;;;22.22;35.40;97048.16;5088903;28;20051;-45
2022/08/14 05:30:54;;;;;;;3.50;3.20;;;19.50;46.90;;;22.24;35.77;97054.16;5090680;28;20375;-44
2022/08/14 05:33:27;;;;;;;4.32;2.85;;;19.60;46.70;;;22.27;36.14;97050.94;5089487;28;20367;-43
2022/08/14 05:36:01;;;;;;;3.40;2.92;;;19.60;46.70;;;22.30;35.84;97050.47;5089026;28;20066;-43
2022/08/14 05:38:35;;;;;;;3.70;3.30;;;19.70;46.70;;;22.35;36.13;97036.97;5089555;28;20048;-43
2022/08/14 05:41:12;;;;;;;3.65;3.00;;;19.80;46.60;;;22.40;36.18;97037.03;5090217;28;20059;-43
2022/08/14 05:43:46;;;;;;;4.07;3.38;;;19.80;46.70;;;22.46;36.08;97037.91;5088720;28;20058;-43
2022/08/14 05:46:17;;;;;;;4.55;3.50;;;19.90;46.80;;;22.48;36.38;97040.38;5088108;28;20040;-43
2022/08/14 05:48:52;;;;;;;4.68;3.80;;;20.00;46.80;;;22.53;36.63;97037.75;5089468;28;20321;-44
2022/08/14 05:51:22;;;;;;;6.38;4.43;;;20.00;46.90;;;22.58;36.21;97030.47;5088455;28;20052;-47
2022/08/14 05:53:50;;;;;;;6.32;3.92;;;20.10;46.90;;;22.64;36.14;97036.75;5088094;28;20062;-43
2022/08/14 05:56:28;;;;;;;6.00;3.83;;;20.10;46.80;;;22.68;36.06;97042.50;5088665;28;20056;-45
2022/08/14 05:58:56;;;;;;;5.38;4.47;;;20.20;46.10;;;22.71;35.82;97044.72;5089833;28;20055;-45
2022/08/14 06:01:27;;;;;;;5.95;4.30;;;20.20;45.90;;;22.72;35.70;97040.91;5089234;28;20609;-44
2022/08/14 06:03:58;;;;;;;4.85;3.85;;;20.20;45.70;;;22.76;35.73;97032.03;5090401;28;20231;-44
2022/08/14 06:06:26;;;;;;;6.00;3.63;;;20.20;45.80;;;22.78;35.61;97039.94;5088868;28;20040;-44
2022/08/14 06:08:54;;;;;;;5.00;4.10;;;20.30;46.00;;;22.80;35.86;97041.31;5090016;28;20048;-44
2022/08/14 06:11:22;;;;;;;5.25;4.32;;;20.30;45.90;;;22.88;35.62;97033.78;5088719;28;20109;-45
2022/08/14 06:13:58;;;;;;;5.78;3.95;;;20.40;46.00;;;22.92;35.31;97035.72;5089510;28;20082;-46
2022/08/14 06:16:26;;;;;;;4.40;3.97;;;20.40;45.90;;;22.95;35.30;97035.25;5089647;28;20052;-46
2022/08/14 06:18:55;;;;;;;4.93;3.50;;;20.50;45.60;;;23.00;35.45;97026.31;5089187;28;20056;-45
2022/08/14 06:21:26;;;;;;;4.30;3.90;;;20.50;45.60;;;23.06;35.75;97033.47;5088614;28;20062;-46
2022/08/14 06:23:56;;;;;;;4.88;4.45;;;20.50;46.00;;;23.12;35.37;97029.72;5089420;28;20048;-44
2022/08/14 06:26:26;;;;;;;4.75;4.25;;;20.60;45.80;;;23.16;35.36;97025.41;5089465;28;20054;-45
2022/08/14 06:28:56;;;;;;;5.00;4.20;;;20.70;45.60;;;23.22;35.66;97022.75;5089208;28;20101;-45
2022/08/14 06:31:24;;;;;;;4.43;4.00;;;20.70;45.50;;;23.26;35.37;97023.88;5088691;28;20040;-45
2022/08/14 06:33:52;;;;;;;4.38;3.97;;;20.80;45.70;;;23.29;35.54;97026.09;5087825;28;20508;-45
2022/08/14 06:36:40;;;;;;;7.60;4.30;;;20.80;45.80;;;23.38;36.06;97010.97;5088158;28;20055;-44
2022/08/14 06:39:08;;;;;;;4.30;3.90;;;20.90;46.70;;;23.39;36.42;97015.28;5088549;28;20066;-46
2022/08/14 06:41:39;;;;;;;4.22;3.75;;;20.90;46.90;;;23.44;35.79;97003.66;5089896;28;20052;-47
2022/08/14 06:44:27;;;;;;;4.85;4.20;;;21.00;46.40;;;23.51;35.81;96998.81;5089305;28;20056;-44
2022/08/14 06:47:01;;;;;;;4.40;3.25;;;21.10;46.10;;;23.55;35.13;96994.50;5089389;28;20084;-45
2022/08/14 06:49:30;;;;;;;4.10;3.30;;;21.10;45.40;;;23.63;34.94;96985.06;5089092;28;20047;-45
2022/08/14 06:52:13;;;;;;;3.67;3.38;;;21.30;44.90;;;23.72;35.14;96991.63;5088162;28;20046;-45
2022/08/14 06:54:44;;;;;;;6.85;3.97;;;21.30;44.70;;;23.78;34.96;96993.34;5086320;28;20048;-44
2022/08/14 06:57:12;;;;;;;4.85;4.07;;;21.40;45.00;;;23.85;35.11;96987.69;5087985;28;20060;-43
2022/08/14 06:59:41;;;;;;;4.85;2.90;;;21.50;45.00;;;23.90;35.22;96983.06;5087119;28;20044;-45
2022/08/14 07:07:50;;;;;;;3.53;3.22;;;21.70;44.40;;;24.12;34.66;96974.78;5086430;28;20056;-43
2022/08/14 07:10:21;;;;;;;3.55;3.25;;;21.80;43.90;;;24.15;34.34;96974.22;5087401;28;20227;-44
2022/08/14 07:12:52;;;;;;;3.35;3.05;;;21.80;43.60;;;24.22;34.33;96965.03;5087481;28;20052;-47
2022/08/14 07:15:29;;;;;;;3.92;3.40;;;21.90;43.30;;;24.29;34.00;96971.03;5088571;28;20058;-43
2022/08/14 07:18:02;;;;;;;4.10;3.00;;;21.90;43.10;;;24.32;34.07;96973.22;5087876;28;20085;-47
2022/08/14 07:20:36;;;;;;;3.72;3.28;;;22.10;43.30;;;24.40;34.04;96974.63;5087497;28;20356;-46
2022/08/14 07:23:06;;;;;;;4.13;3.30;;;22.10;43.20;;;24.44;34.22;96973.81;5087738;28;20062;-46
2022/08/14 07:25:47;;;;;;;3.85;3.55;;;22.20;43.20;;;24.52;33.93;96978.78;5088265;28;20071;-44
2022/08/14 07:28:37;;;;;;;3.72;3.42;;;22.20;42.90;;;24.62;34.06;96988.06;5086701;28;20058;-44
2022/08/14 07:31:11;;;;;;;4.15;3.45;;;22.30;43.00;;;24.63;33.83;96984.25;5087893;28;20040;-46
2022/08/14 07:33:44;;;;;;;4.15;3.22;;;22.30;42.80;;;24.65;33.77;96987.53;5087550;28;20518;-43
2022/08/14 07:36:19;;;;;;;3.75;3.45;;;22.30;42.70;;;24.70;33.79;96995.72;5088446;28;20056;-44
2022/08/14 07:39:01;;;;;;;4.72;3.83;;;22.40;42.80;;;24.75;33.77;96999.25;5087350;28;20458;-49
2022/08/14 07:41:39;;;;;;;3.47;3.10;;;22.40;42.60;;;24.81;33.71;97002.78;5087562;28;20323;-45
2022/08/14 07:44:12;;;;;;;4.18;3.30;;;22.50;42.60;;;24.87;33.74;96998.19;5088334;28;20254;-47
2022/08/14 07:47:00;;;;;;;3.20;2.90;;;22.60;42.50;;;24.95;33.49;96997.66;5087776;28;20036;-46
2022/08/14 07:49:32;;;;;;;3.47;3.17;;;22.70;42.30;;;24.99;33.36;96993.34;5086681;28;20040;-44
2022/08/14 07:52:01;;;;;;;10.20;3.65;;;22.70;42.00;;;25.05;33.08;96994.97;5087139;28;20056;-46
2022/08/14 07:54:30;;;;;;;4.50;3.65;;;22.80;41.60;;;25.11;32.73;96998.50;5085290;28;20363;-47
2022/08/14 07:57:00;;;;;;;3.03;2.75;;;22.80;41.10;;;25.17;32.66;96996.63;5086420;27;20064;-48
2022/08/14 07:59:40;;;;;;;4.38;2.90;;;22.90;41.00;;;25.22;32.19;96989.31;5086805;28;20044;-44
2022/08/14 08:02:14;;;;;;;3.23;2.93;;;22.90;40.30;;;25.28;31.97;96993.66;5093990;28;20054;-46
2022/08/14 08:04:54;;;;;;;4.07;3.10;;;23.00;40.30;;;25.36;31.90;96992.31;5093684;28;20592;-50
2022/08/14 08:07:30;;;;;;;5.93;3.15;;;23.10;39.60;;;25.42;31.95;96991.22;5093913;28;20044;-49
2022/08/14 08:10:29;;;;;;;4.15;3.38;;;23.10;39.90;;;25.48;31.84;96983.84;5096129;28;20056;-46
2022/08/14 08:13:18;;;;;;;3.95;3.20;;;23.20;39.80;;;25.62;31.51;96982.19;5088924;28;20060;-45
2022/08/14 08:15:55;;;;;;;5.57;2.97;;;23.40;39.50;;;25.66;31.63;96977.81;5093489;28;20242;-45
2022/08/14 08:18:25;;;;;;;3.58;2.78;;;23.40;39.50;;;25.73;31.57;96981.09;5093740;28;20055;-48
2022/08/14 08:20:56;;;;;;;2.97;2.65;;;23.50;40.10;;;25.79;31.26;96979.19;5085550;28;20060;-45
2022/08/14 08:23:29;;;;;;;4.10;2.88;;;23.50;39.00;;;25.84;30.83;96981.06;5088297;28;20109;-45
2022/08/14 08:26:17;;;;;;;3.67;3.38;;;23.60;38.60;;;25.92;30.83;96986.81;5085773;28;20048;-44
2022/08/14 08:28:56;;;;;;;4.45;3.30;;;23.70;38.50;;;26.00;30.65;96970.97;5085514;28;20052;-47
2022/08/14 08:31:25;;;;;;;4.20;2.80;;;23.70;37.80;;;26.05;30.59;96981.88;5083373;28;20055;-49
2022/08/14 08:34:05;;;;;;;4.55;3.83;;;23.80;38.10;;;26.11;30.59;96964.38;5084818;28;20077;-48
2022/08/14 08:36:40;;;;;;;3.97;3.05;;;23.90;38.10;;;26.17;30.94;96966.00;5085601;28;20239;-47
2022/08/14 08:39:13;;;;;;;3.58;3.00;;;23.90;37.90;;;26.22;30.34;96974.19;5085512;28;20414;-47
2022/08/14 08:41:49;;;;;;;3.75;2.95;;;23.90;37.90;;;26.26;30.33;96986.16;5086655;28;20052;-46
2022/08/14 08:44:28;;;;;;;2.90;2.70;;;24.00;37.80;;;26.36;30.01;96977.13;5087539;28;20056;-45
2022/08/14 08:47:04;;;;;;;3.38;3.08;;;24.10;37.30;;;26.42;29.80;96978.72;5084461;28;20354;-44
2022/08/14 08:49:42;;;;;;;3.30;3.00;;;24.20;37.00;;;26.52;29.80;96966.94;5084533;28;20388;-47
2022/08/14 08:52:28;;;;;;;3.05;2.83;;;24.30;36.70;;;26.60;29.59;96962.84;5086413;28;20062;-44
2022/08/14 08:54:59;;;;;;;3.47;3.17;;;24.30;36.90;;;26.65;29.57;96958.19;5086995;28;20052;-49
2022/08/14 08:57:36;;;;;;;3.65;2.80;;;24.40;36.90;;;26.72;29.73;96963.34;5085216;28;20829;-44
2022/08/14 09:00:16;;;;;;;3.63;2.78;;;24.50;36.80;;;26.81;29.44;96958.09;5087021;28;20058;-48
2022/08/14 09:03:10;;;;;;;3.95;3.17;;;24.50;35.30;;;26.89;28.93;96962.97;5086137;28;20051;-49
2022/08/14 09:06:02;;;;;;;3.10;2.80;;;24.60;35.10;;;26.96;28.51;96960.72;5087265;28;20059;-45
2022/08/14 09:08:36;;;;;;;3.40;2.92;;;24.70;34.70;;;27.03;28.47;96954.94;5086258;28;20056;-45
2022/08/14 09:11:11;;;;;;;3.67;2.92;;;24.80;34.50;;;27.09;28.59;96948.34;5085952;28;20250;-46
2022/08/14 09:13:52;;;;;;;5.72;3.58;;;24.90;35.10;;;27.20;28.63;96935.41;5085466;28;20062;-48
2022/08/14 09:16:24;;;;;;;3.15;2.80;;;24.90;34.90;;;27.24;28.13;96937.34;5084949;28;20066;-47
2022/08/14 09:18:53;;;;;;;3.15;2.75;;;25.00;34.60;;;27.30;28.30;96943.56;5103991;28;20065;-47
2022/08/14 09:21:22;;;;;;;5.60;3.00;;;25.10;34.70;;;27.34;28.10;96944.63;5105847;28;20060;-52
2022/08/14 09:23:53;;;;;;;4.47;2.55;;;25.20;34.60;;;27.39;27.82;96950.03;5100758;28;20055;-45
2022/08/14 09:26:44;;;;;;;3.80;3.20;;;25.20;34.40;;;27.47;28.42;96938.50;5105876;28;20044;-50
2022/08/14 09:29:17;;;;;;;3.72;3.20;;;25.20;34.70;;;27.52;27.70;96945.00;5106646;28;20039;-49
2022/08/14 09:31:55;;;;;;;4.50;3.30;;;25.30;34.50;;;27.55;27.62;96952.63;5099260;28;20048;-45
2022/08/14 09:34:56;;;;;;;4.78;4.35;;;25.20;34.00;;;27.63;27.66;96952.03;5088031;28;20048;-49
2022/08/14 09:37:59;;;;;;;4.90;3.90;;;25.30;33.30;;;27.69;27.48;96948.13;5088494;28;20048;-48
2022/08/14 09:40:50;;;;;;;3.85;3.53;;;25.40;33.70;;;27.72;27.51;96954.94;5089072;28;20051;-50
2022/08/14 09:44:05;;;;;;;3.03;2.75;;;25.40;33.40;;;27.75;27.66;96954.38;5089174;28;20067;-46
2022/08/14 09:46:34;;;;;;;3.15;2.90;;;25.50;33.40;;;27.80;26.71;96938.72;5016093;28;20064;-45
2022/08/14 09:49:06;;;;;;;3.78;3.47;;;25.50;33.20;;;27.82;26.81;96943.88;5077386;28;20060;-47
2022/08/14 09:51:43;;;;;;;3.90;3.53;;;25.60;32.90;;;27.91;26.67;96936.72;5088906;28;20040;-50
2022/08/14 09:54:38;;;;;;;4.93;2.78;;;25.70;33.00;;;28.04;26.62;96930.53;5088830;28;20242;-45
2022/08/14 09:57:09;;;;;;;4.95;3.42;;;25.80;32.00;;;28.08;26.73;96917.91;5089353;28;20068;-46
2022/08/14 09:59:46;;;;;;;3.75;3.45;;;25.90;32.40;;;28.13;26.64;96919.78;5089068;28;20258;-46
2022/08/14 10:02:30;;;;;;;3.72;2.92;;;25.90;32.30;;;28.22;27.11;96928.16;5089608;28;20070;-47
2022/08/14 10:05:10;;;;;;;3.88;3.58;;;26.00;32.70;;;28.30;26.41;96921.22;5090270;28;20062;-47
2022/08/14 10:07:50;;;;;;;4.50;3.63;;;26.10;32.00;;;28.38;25.97;96909.59;5089538;28;20040;-46
2022/08/14 10:10:37;;;;;;;3.85;3.35;;;26.20;31.70;;;28.43;26.71;96893.94;5087236;28;20055;-46
2022/08/14 10:13:20;;;;;;;4.75;3.50;;;26.20;31.90;;;28.50;26.61;96887.25;5088417;28;20074;-48
2022/08/14 10:15:51;;;;;;;5.25;3.53;;;26.20;32.00;;;28.53;26.38;96892.19;5090120;28;20052;-49
2022/08/14 10:18:25;;;;;;;4.03;3.72;;;26.30;32.40;;;28.60;26.41;96887.16;5088192;28;20048;-47
2022/08/14 10:20:56;;;;;;;4.35;3.40;;;26.40;32.20;;;28.65;26.13;96887.91;5095172;28;20053;-50
2022/08/14 10:23:41;;;;;;;3.95;3.65;;;26.40;32.10;;;28.72;26.28;96879.31;5109021;28;20047;-50
2022/08/14 10:26:09;;;;;;;3.75;3.40;;;26.50;32.00;;;28.82;25.55;96868.19;5108198;28;20070;-50
2022/08/14 10:28:52;;;;;;;4.65;3.50;;;26.60;31.20;;;28.86;25.54;96858.25;5109126;28;20043;-47
2022/08/14 10:31:41;;;;;;;3.83;3.40;;;26.60;30.40;;;28.99;25.56;96866.84;5108801;28;20253;-46
2022/08/14 10:34:19;;;;;;;3.65;3.35;;;26.70;30.90;;;29.07;25.77;96857.94;5109862;28;20058;-44
2022/08/14 10:37:11;;;;;;;4.60;3.63;;;26.80;31.40;;;29.15;25.33;96850.97;5109344;28;20051;-50
2022/08/14 10:39:55;;;;;;;3.95;3.65;;;26.90;30.50;;;29.20;25.43;96834.47;5108920;28;20052;-44
2022/08/14 10:42:40;;;;;;;4.35;3.58;;;27.00;31.00;;;29.27;25.16;96837.59;5107681;28;20474;-45
2022/08/14 10:45:24;;;;;;;6.03;3.92;;;27.00;30.80;;;29.32;25.40;96836.72;5108972;28;20051;-44
2022/08/14 10:47:52;;;;;;;4.00;3.60;;;27.10;30.10;;;29.33;24.79;96830.09;5096080;28;20233;-46
2022/08/14 10:50:44;;;;;;;3.80;3.50;;;27.10;30.10;;;29.38;24.88;96836.31;5087987;28;20052;-47
2022/08/14 10:53:13;;;;;;;4.18;3.78;;;27.20;29.80;;;29.41;24.63;96829.41;5086847;28;20351;-47
2022/08/14 10:55:42;;;;;;;4.10;3.58;;;27.30;30.00;;;29.45;24.59;96825.75;5085281;28;20052;-46
2022/08/14 10:58:12;;;;;;;4.55;4.15;;;27.30;29.80;;;29.53;23.97;96837.16;5086816;28;20052;-45
2022/08/14 11:00:55;;;;;;;3.55;3.25;;;27.30;29.50;;;29.59;24.22;96830.44;5087441;28;20052;-44
2022/08/14 11:03:24;;;;;;;4.43;4.03;;;27.40;29.10;;;29.62;24.00;96836.13;5086769;28;20242;-45
2022/08/14 11:06:21;;;;;;;4.65;4.00;;;27.40;29.50;;;29.71;24.25;96822.50;5090333;28;20060;-46
2022/08/14 11:08:51;;;;;;;3.83;3.53;;;27.40;29.10;;;29.74;23.53;96821.94;5087116;28;20223;-47
2022/08/14 11:11:25;;;;;;;4.45;3.47;;;27.50;29.10;;;29.75;23.33;96820.00;5086297;28;20040;-46
2022/08/14 11:14:05;;;;;;;4.72;3.50;;;27.50;28.90;;;29.76;23.54;96836.16;5086571;28;20265;-46
2022/08/14 11:16:38;;;;;;;3.80;3.50;;;27.50;29.00;;;29.81;23.62;96827.00;5086897;28;20051;-44
2022/08/14 11:19:09;;;;;;;4.57;4.18;;;27.60;29.20;;;29.86;23.48;96813.19;5086419;28;20066;-47